sensor_id;sensor_type;location;lat;lon;timestamp;temperature;humidity
77969;DHT22;67161;0.000;0.000;2023-02-08T00:00:56;17.10;39.80
77969;DHT22;67161;0.000;0.000;2023-02-08T00:03:22;17.10;39.80
77969;DHT22;67161;0.000;0.000;2023-02-08T00:05:48;17.10;39.80
77969;DHT22;67161;0.000;0.000;2023-02-08T00:08:14;17.10;39.80
77969;DHT22;67161;0.000;0.000;2023-02-08T00:10:39;17.10;39.80
77969;DHT22;67161;0.000;0.000;2023-02-08T00:13:05;17.10;39.70
77969;DHT22;67161;0.000;0.000;2023-02-08T00:15:31;17.10;40.60
77969;DHT22;67161;0.000;0.000;2023-02-08T00:17:57;17.10;39.70
77969;DHT22;67161;0.000;0.000;2023-02-08T00:20:22;17.00;39.60
77969;DHT22;67161;0.000;0.000;2023-02-08T00:22:48;17.00;39.50
77969;DHT22;67161;0.000;0.000;2023-02-08T00:25:14;17.00;39.60
77969;DHT22;67161;0.000;0.000;2023-02-08T00:27:39;16.90;39.40
77969;DHT22;67161;0.000;0.000;2023-02-08T00:30:06;16.90;39.40
77969;DHT22;67161;0.000;0.000;2023-02-08T00:32:32;16.90;39.40
77969;DHT22;67161;0.000;0.000;2023-02-08T00:34:58;16.80;39.40
77969;DHT22;67161;0.000;0.000;2023-02-08T00:37:24;16.80;39.40
77969;DHT22;67161;0.000;0.000;2023-02-08T00:39:49;16.80;39.50
77969;DHT22;67161;0.000;0.000;2023-02-08T00:42:15;16.80;39.50
77969;DHT22;67161;0.000;0.000;2023-02-08T00:44:40;16.70;39.50
77969;DHT22;67161;0.000;0.000;2023-02-08T00:47:06;16.70;39.50
77969;DHT22;67161;0.000;0.000;2023-02-08T00:49:32;16.70;39.50
77969;DHT22;67161;0.000;0.000;2023-02-08T00:51:58;16.60;39.60
77969;DHT22;67161;0.000;0.000;2023-02-08T00:54:23;16.60;39.60
77969;DHT22;67161;0.000;0.000;2023-02-08T00:56:49;16.60;39.60
77969;DHT22;67161;0.000;0.000;2023-02-08T00:59:15;16.50;39.70
77969;DHT22;67161;0.000;0.000;2023-02-08T01:01:40;16.50;39.70
77969;DHT22;67161;0.000;0.000;2023-02-08T01:04:07;16.50;39.70
77969;DHT22;67161;0.000;0.000;2023-02-08T01:06:33;16.50;39.80
77969;DHT22;67161;0.000;0.000;2023-02-08T01:08:58;16.40;40.00
77969;DHT22;67161;0.000;0.000;2023-02-08T01:11:25;16.30;40.00
77969;DHT22;67161;0.000;0.000;2023-02-08T01:13:52;16.30;40.00
77969;DHT22;67161;0.000;0.000;2023-02-08T01:16:23;16.30;40.00
77969;DHT22;67161;0.000;0.000;2023-02-08T01:18:51;16.20;40.00
77969;DHT22;67161;0.000;0.000;2023-02-08T01:21:19;16.20;40.10
77969;DHT22;67161;0.000;0.000;2023-02-08T01:23:46;16.10;40.00
77969;DHT22;67161;0.000;0.000;2023-02-08T01:26:12;16.10;40.10
77969;DHT22;67161;0.000;0.000;2023-02-08T01:28:39;16.10;40.00
77969;DHT22;67161;0.000;0.000;2023-02-08T01:31:06;16.00;40.10
77969;DHT22;67161;0.000;0.000;2023-02-08T01:33:32;16.00;40.20
77969;DHT22;67161;0.000;0.000;2023-02-08T01:35:58;16.00;41.20
77969;DHT22;67161;0.000;0.000;2023-02-08T01:38:24;15.90;40.10
77969;DHT22;67161;0.000;0.000;2023-02-08T01:40:49;15.90;40.30
77969;DHT22;67161;0.000;0.000;2023-02-08T01:43:30;15.90;40.40
77969;DHT22;67161;0.000;0.000;2023-02-08T01:45:56;15.80;40.40
77969;DHT22;67161;0.000;0.000;2023-02-08T01:48:29;15.80;40.40
77969;DHT22;67161;0.000;0.000;2023-02-08T01:51:08;15.80;40.50
77969;DHT22;67161;0.000;0.000;2023-02-08T01:53:35;15.80;40.50
77969;DHT22;67161;0.000;0.000;2023-02-08T01:56:04;15.70;40.50
77969;DHT22;67161;0.000;0.000;2023-02-08T01:58:35;15.70;40.50
77969;DHT22;67161;0.000;0.000;2023-02-08T02:01:03;15.70;40.50
77969;DHT22;67161;0.000;0.000;2023-02-08T02:03:29;15.70;40.70
77969;DHT22;67161;0.000;0.000;2023-02-08T02:06:00;15.60;40.70
77969;DHT22;67161;0.000;0.000;2023-02-08T02:08:27;15.60;40.70
77969;DHT22;67161;0.000;0.000;2023-02-08T02:10:53;15.60;40.70
77969;DHT22;67161;0.000;0.000;2023-02-08T02:13:21;15.60;40.80
77969;DHT22;67161;0.000;0.000;2023-02-08T02:15:48;15.50;40.80
77969;DHT22;67161;0.000;0.000;2023-02-08T02:18:24;15.50;40.90
77969;DHT22;67161;0.000;0.000;2023-02-08T02:32:41;15.30;40.90
77969;DHT22;67161;0.000;0.000;2023-02-08T02:38:13;15.30;40.90
77969;DHT22;67161;0.000;0.000;2023-02-08T02:40:59;15.30;41.00
77969;DHT22;67161;0.000;0.000;2023-02-08T02:43:41;15.20;40.90
77969;DHT22;67161;0.000;0.000;2023-02-08T02:56:50;15.10;41.00
77969;DHT22;67161;0.000;0.000;2023-02-08T02:59:17;15.10;41.00
77969;DHT22;67161;0.000;0.000;2023-02-08T03:01:45;15.10;41.00
77969;DHT22;67161;0.000;0.000;2023-02-08T03:07:05;15.00;41.00
77969;DHT22;67161;0.000;0.000;2023-02-08T03:15:02;15.00;41.10
77969;DHT22;67161;0.000;0.000;2023-02-08T03:20:24;14.90;41.10
77969;DHT22;67161;0.000;0.000;2023-02-08T03:22:59;14.90;41.10
77969;DHT22;67161;0.000;0.000;2023-02-08T03:25:28;14.90;41.10
77969;DHT22;67161;0.000;0.000;2023-02-08T03:31:00;14.80;41.10
77969;DHT22;67161;0.000;0.000;2023-02-08T03:33:51;14.80;41.10
77969;DHT22;67161;0.000;0.000;2023-02-08T03:36:26;14.80;41.20
77969;DHT22;67161;0.000;0.000;2023-02-08T03:38:53;14.70;41.10
77969;DHT22;67161;0.000;0.000;2023-02-08T03:41:25;14.70;41.10
77969;DHT22;67161;0.000;0.000;2023-02-08T03:46:30;14.70;41.20
77969;DHT22;67161;0.000;0.000;2023-02-08T03:49:04;14.70;41.20
77969;DHT22;67161;0.000;0.000;2023-02-08T03:51:32;14.70;41.30
77969;DHT22;67161;0.000;0.000;2023-02-08T03:54:00;14.70;41.30
77969;DHT22;67161;0.000;0.000;2023-02-08T03:56:37;14.60;41.30
77969;DHT22;67161;0.000;0.000;2023-02-08T03:59:10;14.60;41.30
77969;DHT22;67161;0.000;0.000;2023-02-08T04:01:57;14.60;41.30
77969;DHT22;67161;0.000;0.000;2023-02-08T04:04:24;14.60;41.30
77969;DHT22;67161;0.000;0.000;2023-02-08T04:06:51;14.60;41.40
77969;DHT22;67161;0.000;0.000;2023-02-08T04:09:17;14.50;42.30
77969;DHT22;67161;0.000;0.000;2023-02-08T04:11:43;14.50;41.30
77969;DHT22;67161;0.000;0.000;2023-02-08T04:14:08;14.50;41.30
77969;DHT22;67161;0.000;0.000;2023-02-08T04:16:34;14.50;42.30
77969;DHT22;67161;0.000;0.000;2023-02-08T04:18:59;14.50;41.30
77969;DHT22;67161;0.000;0.000;2023-02-08T04:21:25;14.50;41.40
77969;DHT22;67161;0.000;0.000;2023-02-08T04:23:51;14.40;41.30
77969;DHT22;67161;0.000;0.000;2023-02-08T04:26:17;14.40;41.30
77969;DHT22;67161;0.000;0.000;2023-02-08T04:28:43;14.40;41.30
77969;DHT22;67161;0.000;0.000;2023-02-08T04:31:09;14.40;41.30
77969;DHT22;67161;0.000;0.000;2023-02-08T04:33:34;14.40;41.30
77969;DHT22;67161;0.000;0.000;2023-02-08T04:36:00;14.40;41.30
77969;DHT22;67161;0.000;0.000;2023-02-08T04:38:26;14.40;41.40
77969;DHT22;67161;0.000;0.000;2023-02-08T04:40:52;14.30;41.30
77969;DHT22;67161;0.000;0.000;2023-02-08T04:43:17;14.30;41.30
77969;DHT22;67161;0.000;0.000;2023-02-08T04:45:43;14.30;41.40
77969;DHT22;67161;0.000;0.000;2023-02-08T04:48:08;14.30;41.30
77969;DHT22;67161;0.000;0.000;2023-02-08T04:50:34;14.30;41.40
77969;DHT22;67161;0.000;0.000;2023-02-08T04:53:00;14.30;41.40
77969;DHT22;67161;0.000;0.000;2023-02-08T04:55:26;14.20;41.30
77969;DHT22;67161;0.000;0.000;2023-02-08T04:57:51;14.20;41.30
77969;DHT22;67161;0.000;0.000;2023-02-08T05:00:17;14.20;41.40
77969;DHT22;67161;0.000;0.000;2023-02-08T05:02:44;14.20;41.40
77969;DHT22;67161;0.000;0.000;2023-02-08T05:05:09;14.20;41.40
77969;DHT22;67161;0.000;0.000;2023-02-08T05:07:35;14.20;41.40
77969;DHT22;67161;0.000;0.000;2023-02-08T05:10:02;14.20;41.50
77969;DHT22;67161;0.000;0.000;2023-02-08T05:12:27;14.10;41.40
77969;DHT22;67161;0.000;0.000;2023-02-08T05:14:53;14.10;41.40
77969;DHT22;67161;0.000;0.000;2023-02-08T05:17:19;14.10;41.40
77969;DHT22;67161;0.000;0.000;2023-02-08T05:19:44;14.10;41.40
77969;DHT22;67161;0.000;0.000;2023-02-08T05:22:10;14.10;41.50
77969;DHT22;67161;0.000;0.000;2023-02-08T05:24:35;14.10;41.50
77969;DHT22;67161;0.000;0.000;2023-02-08T05:27:01;14.10;41.50
77969;DHT22;67161;0.000;0.000;2023-02-08T05:29:27;14.10;41.50
77969;DHT22;67161;0.000;0.000;2023-02-08T05:31:52;14.00;41.50
77969;DHT22;67161;0.000;0.000;2023-02-08T05:34:18;14.00;41.50
77969;DHT22;67161;0.000;0.000;2023-02-08T05:36:43;14.00;41.50
77969;DHT22;67161;0.000;0.000;2023-02-08T05:39:09;14.00;41.60
77969;DHT22;67161;0.000;0.000;2023-02-08T05:41:35;14.00;41.50
77969;DHT22;67161;0.000;0.000;2023-02-08T05:44:00;14.00;41.60
77969;DHT22;67161;0.000;0.000;2023-02-08T05:46:26;13.90;41.50
77969;DHT22;67161;0.000;0.000;2023-02-08T05:48:51;14.00;42.50
77969;DHT22;67161;0.000;0.000;2023-02-08T05:51:17;13.90;41.50
77969;DHT22;67161;0.000;0.000;2023-02-08T05:53:43;13.90;41.60
77969;DHT22;67161;0.000;0.000;2023-02-08T05:56:09;13.90;41.60
77969;DHT22;67161;0.000;0.000;2023-02-08T05:58:35;13.90;41.50
77969;DHT22;67161;0.000;0.000;2023-02-08T06:01:00;13.90;41.50
77969;DHT22;67161;0.000;0.000;2023-02-08T06:03:31;13.80;41.60
77969;DHT22;67161;0.000;0.000;2023-02-08T06:05:59;13.80;41.50
77969;DHT22;67161;0.000;0.000;2023-02-08T06:08:26;13.80;41.50
77969;DHT22;67161;0.000;0.000;2023-02-08T06:10:51;13.80;41.60
77969;DHT22;67161;0.000;0.000;2023-02-08T06:13:17;13.80;41.60
77969;DHT22;67161;0.000;0.000;2023-02-08T06:15:42;13.80;41.60
77969;DHT22;67161;0.000;0.000;2023-02-08T06:18:09;13.80;41.60
77969;DHT22;67161;0.000;0.000;2023-02-08T06:20:36;13.80;41.60
77969;DHT22;67161;0.000;0.000;2023-02-08T06:23:02;13.70;41.60
77969;DHT22;67161;0.000;0.000;2023-02-08T06:25:27;13.70;41.60
77969;DHT22;67161;0.000;0.000;2023-02-08T06:27:53;13.70;41.70
77969;DHT22;67161;0.000;0.000;2023-02-08T06:30:19;13.60;41.60
77969;DHT22;67161;0.000;0.000;2023-02-08T06:32:44;13.70;41.70
77969;DHT22;67161;0.000;0.000;2023-02-08T06:35:10;13.70;41.70
77969;DHT22;67161;0.000;0.000;2023-02-08T06:37:36;13.60;41.60
77969;DHT22;67161;0.000;0.000;2023-02-08T06:40:02;13.60;41.50
77969;DHT22;67161;0.000;0.000;2023-02-08T06:42:28;13.60;41.60
77969;DHT22;67161;0.000;0.000;2023-02-08T06:44:54;13.60;41.60
77969;DHT22;67161;0.000;0.000;2023-02-08T06:47:21;13.60;41.60
77969;DHT22;67161;0.000;0.000;2023-02-08T06:49:47;13.60;41.60
77969;DHT22;67161;0.000;0.000;2023-02-08T06:52:13;13.50;41.60
77969;DHT22;67161;0.000;0.000;2023-02-08T06:54:38;13.50;41.60
77969;DHT22;67161;0.000;0.000;2023-02-08T06:57:04;13.50;41.60
77969;DHT22;67161;0.000;0.000;2023-02-08T06:59:31;13.50;41.60
77969;DHT22;67161;0.000;0.000;2023-02-08T07:01:56;13.50;41.60
77969;DHT22;67161;0.000;0.000;2023-02-08T07:04:22;13.50;41.70
77969;DHT22;67161;0.000;0.000;2023-02-08T07:06:48;13.50;41.70
77969;DHT22;67161;0.000;0.000;2023-02-08T07:09:14;13.40;42.50
77969;DHT22;67161;0.000;0.000;2023-02-08T07:11:40;13.40;41.60
77969;DHT22;67161;0.000;0.000;2023-02-08T07:14:06;13.40;41.70
77969;DHT22;67161;0.000;0.000;2023-02-08T07:16:31;13.40;41.70
77969;DHT22;67161;0.000;0.000;2023-02-08T07:18:57;13.40;41.70
77969;DHT22;67161;0.000;0.000;2023-02-08T07:21:22;13.40;41.70
77969;DHT22;67161;0.000;0.000;2023-02-08T07:23:48;13.30;41.60
77969;DHT22;67161;0.000;0.000;2023-02-08T07:26:14;13.30;41.60
77969;DHT22;67161;0.000;0.000;2023-02-08T07:28:40;13.30;41.70
77969;DHT22;67161;0.000;0.000;2023-02-08T07:31:10;13.30;41.70
77969;DHT22;67161;0.000;0.000;2023-02-08T07:33:37;13.30;41.70
77969;DHT22;67161;0.000;0.000;2023-02-08T07:36:03;13.30;41.70
77969;DHT22;67161;0.000;0.000;2023-02-08T07:38:30;13.30;41.70
77969;DHT22;67161;0.000;0.000;2023-02-08T07:41:00;13.30;41.60
77969;DHT22;67161;0.000;0.000;2023-02-08T07:43:26;13.30;41.60
77969;DHT22;67161;0.000;0.000;2023-02-08T07:45:52;13.20;41.60
77969;DHT22;67161;0.000;0.000;2023-02-08T07:48:17;13.30;41.60
77969;DHT22;67161;0.000;0.000;2023-02-08T07:50:43;13.30;41.60
77969;DHT22;67161;0.000;0.000;2023-02-08T07:53:09;13.30;41.50
77969;DHT22;67161;0.000;0.000;2023-02-08T07:55:34;13.30;41.50
77969;DHT22;67161;0.000;0.000;2023-02-08T07:58:00;13.30;41.50
77969;DHT22;67161;0.000;0.000;2023-02-08T08:00:25;13.30;41.50
77969;DHT22;67161;0.000;0.000;2023-02-08T08:02:52;13.30;41.50
77969;DHT22;67161;0.000;0.000;2023-02-08T08:05:17;13.30;41.40
77969;DHT22;67161;0.000;0.000;2023-02-08T08:07:43;13.30;41.40
77969;DHT22;67161;0.000;0.000;2023-02-08T08:10:09;13.30;41.50
77969;DHT22;67161;0.000;0.000;2023-02-08T08:12:34;13.30;41.50
77969;DHT22;67161;0.000;0.000;2023-02-08T08:15:00;13.30;41.40
77969;DHT22;67161;0.000;0.000;2023-02-08T08:17:25;13.30;41.50
77969;DHT22;67161;0.000;0.000;2023-02-08T08:19:51;13.30;41.50
77969;DHT22;67161;0.000;0.000;2023-02-08T08:22:17;13.30;41.50
77969;DHT22;67161;0.000;0.000;2023-02-08T08:24:42;13.30;41.50
77969;DHT22;67161;0.000;0.000;2023-02-08T08:27:08;13.30;41.50
77969;DHT22;67161;0.000;0.000;2023-02-08T08:29:35;13.30;41.40
77969;DHT22;67161;0.000;0.000;2023-02-08T08:32:01;13.30;41.30
77969;DHT22;67161;0.000;0.000;2023-02-08T08:34:27;13.30;41.40
77969;DHT22;67161;0.000;0.000;2023-02-08T08:37:00;13.30;41.30
77969;DHT22;67161;0.000;0.000;2023-02-08T08:39:26;13.30;41.20
77969;DHT22;67161;0.000;0.000;2023-02-08T08:41:59;13.30;42.10
77969;DHT22;67161;0.000;0.000;2023-02-08T08:44:25;13.40;41.20
77969;DHT22;67161;0.000;0.000;2023-02-08T08:46:54;13.40;41.20
77969;DHT22;67161;0.000;0.000;2023-02-08T08:49:21;13.40;41.10
77969;DHT22;67161;0.000;0.000;2023-02-08T08:51:47;13.50;41.10
77969;DHT22;67161;0.000;0.000;2023-02-08T08:54:12;13.50;41.00
77969;DHT22;67161;0.000;0.000;2023-02-08T08:56:38;13.60;41.00
77969;DHT22;67161;0.000;0.000;2023-02-08T08:59:04;13.60;41.60
77969;DHT22;67161;0.000;0.000;2023-02-08T09:01:29;13.70;41.70
77969;DHT22;67161;0.000;0.000;2023-02-08T09:03:55;13.80;41.50
77969;DHT22;67161;0.000;0.000;2023-02-08T09:06:20;13.80;41.30
77969;DHT22;67161;0.000;0.000;2023-02-08T09:08:46;13.90;41.30
77969;DHT22;67161;0.000;0.000;2023-02-08T09:11:13;14.00;41.20
77969;DHT22;67161;0.000;0.000;2023-02-08T09:13:40;14.00;41.10
77969;DHT22;67161;0.000;0.000;2023-02-08T09:16:14;14.10;41.00
77969;DHT22;67161;0.000;0.000;2023-02-08T09:18:43;14.10;40.80
77969;DHT22;67161;0.000;0.000;2023-02-08T09:21:17;14.20;40.70
77969;DHT22;67161;0.000;0.000;2023-02-08T09:23:43;14.30;40.70
77969;DHT22;67161;0.000;0.000;2023-02-08T09:26:12;14.30;40.60
77969;DHT22;67161;0.000;0.000;2023-02-08T09:28:38;14.40;40.50
77969;DHT22;67161;0.000;0.000;2023-02-08T09:31:26;14.40;40.30
77969;DHT22;67161;0.000;0.000;2023-02-08T09:33:54;14.50;40.30
77969;DHT22;67161;0.000;0.000;2023-02-08T09:36:20;14.50;40.20
77969;DHT22;67161;0.000;0.000;2023-02-08T09:38:47;14.60;40.30
77969;DHT22;67161;0.000;0.000;2023-02-08T09:44:12;14.70;40.10
77969;DHT22;67161;0.000;0.000;2023-02-08T09:46:46;14.70;39.90
77969;DHT22;67161;0.000;0.000;2023-02-08T09:49:18;14.80;40.00
77969;DHT22;67161;0.000;0.000;2023-02-08T09:51:55;14.90;40.00
77969;DHT22;67161;0.000;0.000;2023-02-08T09:54:31;14.90;39.90
77969;DHT22;67161;0.000;0.000;2023-02-08T09:57:00;15.00;40.00
77969;DHT22;67161;0.000;0.000;2023-02-08T09:59:31;15.00;40.00
77969;DHT22;67161;0.000;0.000;2023-02-08T10:05:00;15.10;39.90
77969;DHT22;67161;0.000;0.000;2023-02-08T10:07:28;15.10;39.80
77969;DHT22;67161;0.000;0.000;2023-02-08T10:09:56;15.20;39.70
77969;DHT22;67161;0.000;0.000;2023-02-08T10:23:46;15.30;39.10
77969;DHT22;67161;0.000;0.000;2023-02-08T10:26:43;15.30;39.00
77969;DHT22;67161;0.000;0.000;2023-02-08T10:29:14;15.40;39.30
77969;DHT22;67161;0.000;0.000;2023-02-08T10:32:22;15.40;39.20
77969;DHT22;67161;0.000;0.000;2023-02-08T10:34:56;15.40;39.10
77969;DHT22;67161;0.000;0.000;2023-02-08T10:37:30;15.30;38.80
77969;DHT22;67161;0.000;0.000;2023-02-08T10:40:30;15.30;38.60
77969;DHT22;67161;0.000;0.000;2023-02-08T10:43:45;15.30;38.20
77969;DHT22;67161;0.000;0.000;2023-02-08T10:46:14;15.40;38.60
77969;DHT22;67161;0.000;0.000;2023-02-08T10:51:19;15.40;38.50
77969;DHT22;67161;0.000;0.000;2023-02-08T10:53:46;15.50;38.20
77969;DHT22;67161;0.000;0.000;2023-02-08T10:58:49;15.60;37.90
77969;DHT22;67161;0.000;0.000;2023-02-08T11:01:14;15.60;37.80
77969;DHT22;67161;0.000;0.000;2023-02-08T11:04:00;15.60;37.60
77969;DHT22;67161;0.000;0.000;2023-02-08T11:06:26;15.70;37.80
77969;DHT22;67161;0.000;0.000;2023-02-08T11:08:55;15.70;37.80
77969;DHT22;67161;0.000;0.000;2023-02-08T11:11:24;15.70;37.90
77969;DHT22;67161;0.000;0.000;2023-02-08T11:13:51;15.80;37.60
77969;DHT22;67161;0.000;0.000;2023-02-08T11:16:25;15.70;37.50
77969;DHT22;67161;0.000;0.000;2023-02-08T11:18:53;15.80;37.30
77969;DHT22;67161;0.000;0.000;2023-02-08T11:21:38;15.80;38.30
77969;DHT22;67161;0.000;0.000;2023-02-08T11:24:25;15.80;37.10
77969;DHT22;67161;0.000;0.000;2023-02-08T11:26:52;15.80;36.70
77969;DHT22;67161;0.000;0.000;2023-02-08T11:29:26;15.90;36.80
77969;DHT22;67161;0.000;0.000;2023-02-08T11:34:29;15.90;36.70
77969;DHT22;67161;0.000;0.000;2023-02-08T11:36:58;16.00;36.50
77969;DHT22;67161;0.000;0.000;2023-02-08T11:39:48;16.00;36.30
77969;DHT22;67161;0.000;0.000;2023-02-08T11:42:19;16.10;36.00
77969;DHT22;67161;0.000;0.000;2023-02-08T11:44:46;16.10;36.20
77969;DHT22;67161;0.000;0.000;2023-02-08T11:47:16;16.10;35.30
77969;DHT22;67161;0.000;0.000;2023-02-08T11:49:43;16.10;35.70
77969;DHT22;67161;0.000;0.000;2023-02-08T11:52:30;16.20;35.60
77969;DHT22;67161;0.000;0.000;2023-02-08T11:58:03;16.30;35.00
77969;DHT22;67161;0.000;0.000;2023-02-08T12:00:32;16.30;35.20
77969;DHT22;67161;0.000;0.000;2023-02-08T12:03:05;16.40;35.30
77969;DHT22;67161;0.000;0.000;2023-02-08T12:05:41;16.40;35.00
77969;DHT22;67161;0.000;0.000;2023-02-08T12:19:51;16.50;34.50
77969;DHT22;67161;0.000;0.000;2023-02-08T12:21:44;16.50;34.70
77969;DHT22;67161;0.000;0.000;2023-02-08T12:24:19;16.40;34.90
77969;DHT22;67161;0.000;0.000;2023-02-08T12:27:01;16.40;34.90
77969;DHT22;67161;0.000;0.000;2023-02-08T12:40:45;16.40;35.00
77969;DHT22;67161;0.000;0.000;2023-02-08T12:43:36;16.40;34.70
77969;DHT22;67161;0.000;0.000;2023-02-08T12:51:36;16.50;34.40
77969;DHT22;67161;0.000;0.000;2023-02-08T12:54:36;16.50;35.10
77969;DHT22;67161;0.000;0.000;2023-02-08T12:57:17;16.50;34.20
77969;DHT22;67161;0.000;0.000;2023-02-08T13:06:03;16.50;34.60
77969;DHT22;67161;0.000;0.000;2023-02-08T13:08:52;16.60;35.10
77969;DHT22;67161;0.000;0.000;2023-02-08T13:11:41;16.60;35.50
77969;DHT22;67161;0.000;0.000;2023-02-08T13:14:39;16.60;35.70
77969;DHT22;67161;0.000;0.000;2023-02-08T13:17:48;16.60;35.70
77969;DHT22;67161;0.000;0.000;2023-02-08T13:20:32;16.60;35.60
77969;DHT22;67161;0.000;0.000;2023-02-08T13:23:29;16.60;35.70
77969;DHT22;67161;0.000;0.000;2023-02-08T13:26:01;16.60;36.00
77969;DHT22;67161;0.000;0.000;2023-02-08T13:28:28;16.60;35.90
77969;DHT22;67161;0.000;0.000;2023-02-08T13:31:01;16.60;35.90
77969;DHT22;67161;0.000;0.000;2023-02-08T13:33:49;16.60;36.10
77969;DHT22;67161;0.000;0.000;2023-02-08T13:36:30;16.60;36.00
77969;DHT22;67161;0.000;0.000;2023-02-08T13:39:03;16.60;36.40
77969;DHT22;67161;0.000;0.000;2023-02-08T13:41:31;16.60;36.80
77969;DHT22;67161;0.000;0.000;2023-02-08T13:44:08;16.60;36.80
77969;DHT22;67161;0.000;0.000;2023-02-08T13:46:44;16.60;36.90
77969;DHT22;67161;0.000;0.000;2023-02-08T13:52:03;16.60;36.70
77969;DHT22;67161;0.000;0.000;2023-02-08T13:54:30;16.50;36.80
77969;DHT22;67161;0.000;0.000;2023-02-08T13:56:55;16.50;36.80
77969;DHT22;67161;0.000;0.000;2023-02-08T14:12:25;17.60;35.20
77969;DHT22;67161;0.000;0.000;2023-02-08T14:15:06;17.40;35.40
77969;DHT22;67161;0.000;0.000;2023-02-08T14:17:32;17.30;35.50
77969;DHT22;67161;0.000;0.000;2023-02-08T14:20:02;17.20;35.70
77969;DHT22;67161;0.000;0.000;2023-02-08T14:22:37;17.10;35.90
77969;DHT22;67161;0.000;0.000;2023-02-08T14:25:17;17.00;35.90
77969;DHT22;67161;0.000;0.000;2023-02-08T14:27:59;17.00;35.90
77969;DHT22;67161;0.000;0.000;2023-02-08T14:30:31;16.90;36.10
77969;DHT22;67161;0.000;0.000;2023-02-08T14:35:29;16.80;36.30
77969;DHT22;67161;0.000;0.000;2023-02-08T14:40:47;16.70;35.60
77969;DHT22;67161;0.000;0.000;2023-02-08T14:45:55;16.60;35.00
77969;DHT22;67161;0.000;0.000;2023-02-08T14:48:41;16.50;34.50
77969;DHT22;67161;0.000;0.000;2023-02-08T14:58:36;16.40;34.00
77969;DHT22;67161;0.000;0.000;2023-02-08T15:01:17;16.40;34.00
77969;DHT22;67161;0.000;0.000;2023-02-08T15:03:45;16.30;33.80
77969;DHT22;67161;0.000;0.000;2023-02-08T15:08:54;16.30;33.90
77969;DHT22;67161;0.000;0.000;2023-02-08T15:11:27;16.30;34.20
77969;DHT22;67161;0.000;0.000;2023-02-08T15:13:55;16.30;34.30
77969;DHT22;67161;0.000;0.000;2023-02-08T15:16:26;16.30;34.40
77969;DHT22;67161;0.000;0.000;2023-02-08T15:18:52;16.30;34.50
77969;DHT22;67161;0.000;0.000;2023-02-08T15:21:22;16.20;34.70
77969;DHT22;67161;0.000;0.000;2023-02-08T15:24:00;16.20;34.70
77969;DHT22;67161;0.000;0.000;2023-02-08T15:26:28;16.20;35.00
77969;DHT22;67161;0.000;0.000;2023-02-08T15:28:54;16.30;35.10
77969;DHT22;67161;0.000;0.000;2023-02-08T15:31:28;16.30;35.30
77969;DHT22;67161;0.000;0.000;2023-02-08T15:33:54;16.30;35.40
77969;DHT22;67161;0.000;0.000;2023-02-08T15:36:35;16.20;35.50
77969;DHT22;67161;0.000;0.000;2023-02-08T15:39:08;16.30;35.70
77969;DHT22;67161;0.000;0.000;2023-02-08T15:41:35;16.20;35.70
77969;DHT22;67161;0.000;0.000;2023-02-08T15:44:21;16.20;36.00
77969;DHT22;67161;0.000;0.000;2023-02-08T15:46:50;16.30;36.20
77969;DHT22;67161;0.000;0.000;2023-02-08T15:49:29;16.30;36.20
77969;DHT22;67161;0.000;0.000;2023-02-08T15:51:56;16.20;36.30
77969;DHT22;67161;0.000;0.000;2023-02-08T15:54:22;16.30;36.40
77969;DHT22;67161;0.000;0.000;2023-02-08T15:56:53;16.20;36.50
77969;DHT22;67161;0.000;0.000;2023-02-08T15:59:25;16.20;36.60
77969;DHT22;67161;0.000;0.000;2023-02-08T16:01:53;16.30;36.60
77969;DHT22;67161;0.000;0.000;2023-02-08T16:04:19;16.30;37.00
77969;DHT22;67161;0.000;0.000;2023-02-08T16:06:54;16.20;37.30
77969;DHT22;67161;0.000;0.000;2023-02-08T16:09:26;16.20;37.60
77969;DHT22;67161;0.000;0.000;2023-02-08T16:11:55;16.20;37.60
77969;DHT22;67161;0.000;0.000;2023-02-08T16:14:23;16.20;37.70
77969;DHT22;67161;0.000;0.000;2023-02-08T16:16:52;16.10;37.60
77969;DHT22;67161;0.000;0.000;2023-02-08T16:19:21;16.10;37.70
77969;DHT22;67161;0.000;0.000;2023-02-08T16:21:47;16.10;37.70
77969;DHT22;67161;0.000;0.000;2023-02-08T16:34:22;16.00;39.40
77969;DHT22;67161;0.000;0.000;2023-02-08T16:36:51;16.00;38.70
77969;DHT22;67161;0.000;0.000;2023-02-08T16:41:59;16.00;38.40
77969;DHT22;67161;0.000;0.000;2023-02-08T16:44:27;16.00;38.30
77969;DHT22;67161;0.000;0.000;2023-02-08T16:46:55;16.00;38.20
77969;DHT22;67161;0.000;0.000;2023-02-08T16:49:20;16.00;38.10
77969;DHT22;67161;0.000;0.000;2023-02-08T16:51:46;16.00;38.10
77969;DHT22;67161;0.000;0.000;2023-02-08T16:54:16;16.00;37.80
77969;DHT22;67161;0.000;0.000;2023-02-08T16:56:43;16.00;37.80
77969;DHT22;67161;0.000;0.000;2023-02-08T16:59:12;15.90;37.70
77969;DHT22;67161;0.000;0.000;2023-02-08T17:01:38;15.90;37.60
77969;DHT22;67161;0.000;0.000;2023-02-08T17:04:04;15.90;37.50
77969;DHT22;67161;0.000;0.000;2023-02-08T17:06:32;15.90;37.40
77969;DHT22;67161;0.000;0.000;2023-02-08T17:08:58;15.90;37.30
77969;DHT22;67161;0.000;0.000;2023-02-08T17:11:25;15.90;37.20
77969;DHT22;67161;0.000;0.000;2023-02-08T17:13:51;15.90;37.20
77969;DHT22;67161;0.000;0.000;2023-02-08T17:16:26;15.90;37.20
77969;DHT22;67161;0.000;0.000;2023-02-08T17:18:52;15.90;37.10
77969;DHT22;67161;0.000;0.000;2023-02-08T17:21:18;15.90;37.00
77969;DHT22;67161;0.000;0.000;2023-02-08T17:23:44;15.90;37.00
77969;DHT22;67161;0.000;0.000;2023-02-08T17:26:31;15.90;37.00
77969;DHT22;67161;0.000;0.000;2023-02-08T17:28:58;16.00;37.00
77969;DHT22;67161;0.000;0.000;2023-02-08T17:31:26;15.90;37.00
77969;DHT22;67161;0.000;0.000;2023-02-08T17:33:53;15.90;36.90
77969;DHT22;67161;0.000;0.000;2023-02-08T17:36:20;15.90;36.90
77969;DHT22;67161;0.000;0.000;2023-02-08T17:38:46;15.90;36.90
77969;DHT22;67161;0.000;0.000;2023-02-08T17:41:18;15.90;36.90
77969;DHT22;67161;0.000;0.000;2023-02-08T17:43:44;15.90;36.90
77969;DHT22;67161;0.000;0.000;2023-02-08T17:46:14;15.90;36.80
77969;DHT22;67161;0.000;0.000;2023-02-08T17:48:40;15.90;36.80
77969;DHT22;67161;0.000;0.000;2023-02-08T17:53:34;15.90;36.80
77969;DHT22;67161;0.000;0.000;2023-02-08T17:56:12;15.90;36.80
77969;DHT22;67161;0.000;0.000;2023-02-08T17:58:40;15.90;36.80
77969;DHT22;67161;0.000;0.000;2023-02-08T18:01:07;15.90;36.80
77969;DHT22;67161;0.000;0.000;2023-02-08T18:03:34;15.90;36.80
77969;DHT22;67161;0.000;0.000;2023-02-08T18:06:00;15.90;36.80
77969;DHT22;67161;0.000;0.000;2023-02-08T18:08:26;15.90;36.80
77969;DHT22;67161;0.000;0.000;2023-02-08T18:10:52;15.90;36.80
77969;DHT22;67161;0.000;0.000;2023-02-08T18:13:18;15.90;36.80
77969;DHT22;67161;0.000;0.000;2023-02-08T18:15:44;15.90;36.80
77969;DHT22;67161;0.000;0.000;2023-02-08T18:18:10;15.90;36.90
77969;DHT22;67161;0.000;0.000;2023-02-08T18:20:42;15.90;37.00
77969;DHT22;67161;0.000;0.000;2023-02-08T18:23:07;15.90;37.00
77969;DHT22;67161;0.000;0.000;2023-02-08T18:25:33;15.90;37.10
77969;DHT22;67161;0.000;0.000;2023-02-08T18:27:59;15.90;37.10
77969;DHT22;67161;0.000;0.000;2023-02-08T18:30:24;15.90;37.10
77969;DHT22;67161;0.000;0.000;2023-02-08T18:32:52;15.90;37.10